createdAt,value
2023-03-13T00:00:26.655Z,8.40
2023-03-13T00:03:12.185Z,8.40
2023-03-13T00:05:58.706Z,8.40
2023-03-13T00:08:44.860Z,8.50
2023-03-13T00:11:30.339Z,8.60
2023-03-13T00:14:15.720Z,8.50
2023-03-13T00:17:03.035Z,8.60
2023-03-13T00:19:49.763Z,8.60
2023-03-13T00:22:34.773Z,8.60
2023-03-13T00:25:20.257Z,8.50
2023-03-13T00:28:05.617Z,8.50
2023-03-13T00:30:50.905Z,8.60
2023-03-13T00:33:38.233Z,8.50
2023-03-13T00:36:26.362Z,8.60
2023-03-13T00:39:11.433Z,8.50
2023-03-13T00:41:56.869Z,8.60
2023-03-13T00:44:42.419Z,8.60
2023-03-13T00:47:27.793Z,8.60
2023-03-13T00:50:13.108Z,8.50
2023-03-13T00:52:58.444Z,8.50
2023-03-13T00:55:54.192Z,8.50
2023-03-13T00:58:41.607Z,8.60
2023-03-13T01:01:34.772Z,8.60
2023-03-13T01:04:20.337Z,8.60
2023-03-13T01:07:05.729Z,8.70
2023-03-13T01:09:52.065Z,8.70
2023-03-13T01:12:37.546Z,8.70
2023-03-13T01:15:24.138Z,8.70
2023-03-13T01:18:09.439Z,8.60
2023-03-13T01:20:54.821Z,8.70
2023-03-13T01:23:40.708Z,8.60
2023-03-13T01:26:27.265Z,8.60
2023-03-13T01:29:12.869Z,8.50
2023-03-13T01:31:58.119Z,8.50
2023-03-13T01:34:43.408Z,8.60
2023-03-13T01:37:28.898Z,8.60
2023-03-13T01:40:14.331Z,8.60
2023-03-13T01:43:00.587Z,8.60
2023-03-13T01:46:04.502Z,8.60
2023-03-13T01:49:15.434Z,8.60
2023-03-13T01:52:15.604Z,8.70
2023-03-13T01:55:07.485Z,8.60
2023-03-13T01:57:54.562Z,8.60
2023-03-13T02:00:42.480Z,8.60
2023-03-13T02:03:29.162Z,8.60
2023-03-13T02:06:14.922Z,8.50
2023-03-13T02:09:05.186Z,8.50
2023-03-13T02:12:06.702Z,8.70
2023-03-13T02:14:52.794Z,8.70
2023-03-13T02:17:40.276Z,8.70
2023-03-13T02:20:25.769Z,8.80
2023-03-13T02:23:32.921Z,8.70
2023-03-13T02:26:18.252Z,8.80
2023-03-13T02:29:03.636Z,8.80
2023-03-13T02:31:49.178Z,8.80
2023-03-13T02:34:38.027Z,8.80
2023-03-13T02:37:26.158Z,8.70
2023-03-13T02:40:14.582Z,8.70
2023-03-13T02:43:04.996Z,8.70
2023-03-13T02:46:19.300Z,8.70
2023-03-13T02:49:22.289Z,8.60
2023-03-13T02:52:38.770Z,8.60
2023-03-13T02:55:38.819Z,8.60
2023-03-13T02:58:25.349Z,8.60
2023-03-13T03:01:10.648Z,8.60
2023-03-13T03:03:56.281Z,8.50
2023-03-13T03:06:41.662Z,8.60
2023-03-13T03:09:27.071Z,8.50
2023-03-13T03:12:12.526Z,8.50
2023-03-13T03:14:57.968Z,8.50
2023-03-13T03:17:43.216Z,8.50
2023-03-13T03:20:28.782Z,8.50
2023-03-13T03:23:14.158Z,8.50
2023-03-13T03:26:00.313Z,8.50
2023-03-13T03:28:45.808Z,8.70
2023-03-13T03:31:31.903Z,8.70
2023-03-13T03:34:17.162Z,8.70
2023-03-13T03:37:02.526Z,8.60
2023-03-13T03:39:47.873Z,8.70
2023-03-13T03:42:34.002Z,8.70
2023-03-13T03:45:19.417Z,8.70
2023-03-13T03:48:04.967Z,8.70
2023-03-13T03:50:50.296Z,8.80
2023-03-13T03:53:35.699Z,8.70
2023-03-13T03:56:21.110Z,8.70
2023-03-13T03:59:06.497Z,8.80
2023-03-13T04:01:52.161Z,8.80
2023-03-13T04:04:37.459Z,8.70
2023-03-13T04:07:22.616Z,8.70
2023-03-13T04:10:08.396Z,8.80
2023-03-13T04:12:53.884Z,8.80
2023-03-13T04:15:42.646Z,8.80
2023-03-13T04:18:27.708Z,8.70
2023-03-13T04:21:13.179Z,8.70
2023-03-13T04:23:58.536Z,8.70
2023-03-13T04:26:44.202Z,8.70
2023-03-13T04:29:29.676Z,8.70
2023-03-13T04:32:14.736Z,8.70
2023-03-13T04:35:00.340Z,8.60
2023-03-13T04:37:45.842Z,8.60
2023-03-13T04:40:30.915Z,8.60
2023-03-13T04:43:16.320Z,8.60
2023-03-13T04:46:01.631Z,8.60
2023-03-13T04:48:47.219Z,8.60
2023-03-13T04:51:32.582Z,8.60
2023-03-13T04:54:18.088Z,8.60
2023-03-13T04:57:03.513Z,8.60
2023-03-13T04:59:48.989Z,8.60
2023-03-13T05:02:34.748Z,8.60
2023-03-13T05:05:20.383Z,8.60
2023-03-13T05:08:06.159Z,8.60
2023-03-13T05:10:51.542Z,8.60
2023-03-13T05:13:37.062Z,8.70
2023-03-13T05:16:22.439Z,8.70
2023-03-13T05:19:07.963Z,8.70
2023-03-13T05:21:53.382Z,8.70
2023-03-13T05:24:41.469Z,8.60
2023-03-13T05:27:26.887Z,8.70
2023-03-13T05:30:12.615Z,8.70
2023-03-13T05:32:57.742Z,8.70
2023-03-13T05:35:43.469Z,8.70
2023-03-13T05:38:29.453Z,8.60
2023-03-13T05:41:14.993Z,8.70
2023-03-13T05:44:00.363Z,8.70
2023-03-13T05:46:45.826Z,8.70
2023-03-13T05:49:31.089Z,8.60
2023-03-13T05:52:16.633Z,8.70
2023-03-13T05:55:02.415Z,8.60
2023-03-13T05:57:48.269Z,8.60
2023-03-13T06:00:33.610Z,8.60
2023-03-13T06:03:19.113Z,8.70
2023-03-13T06:06:04.679Z,8.70
2023-03-13T06:08:53.033Z,8.70
2023-03-13T06:11:38.596Z,8.60
2023-03-13T06:14:24.059Z,8.60
2023-03-13T06:17:09.521Z,8.50
2023-03-13T06:19:54.977Z,8.50
2023-03-13T06:22:41.503Z,8.50
2023-03-13T06:25:26.929Z,8.60
2023-03-13T06:28:12.286Z,8.60
2023-03-13T06:31:02.998Z,8.50
2023-03-13T06:33:49.732Z,8.40
2023-03-13T06:36:36.558Z,8.40
2023-03-13T06:39:22.175Z,8.30
2023-03-13T06:42:07.729Z,8.20
2023-03-13T06:44:53.252Z,8.20
2023-03-13T06:47:38.552Z,8.30
2023-03-13T06:50:24.183Z,8.30
2023-03-13T06:53:17.754Z,8.20
2023-03-13T06:56:03.116Z,8.30
2023-03-13T06:58:49.874Z,8.40
2023-03-13T07:01:35.033Z,8.40
2023-03-13T07:04:20.616Z,8.40
2023-03-13T07:07:05.783Z,8.40
2023-03-13T07:09:51.134Z,8.40
2023-03-13T07:12:37.452Z,8.40
2023-03-13T07:15:23.717Z,8.40
2023-03-13T07:18:09.105Z,8.60
2023-03-13T07:20:56.054Z,8.60
2023-03-13T07:23:41.560Z,8.60
2023-03-13T07:26:27.082Z,8.70
2023-03-13T07:29:12.442Z,8.70
2023-03-13T07:31:57.806Z,8.70
2023-03-13T07:34:44.654Z,8.70
2023-03-13T07:37:30.667Z,8.80
2023-03-13T07:40:16.330Z,8.80
2023-03-13T07:43:02.848Z,8.80
2023-03-13T07:45:53.497Z,8.80
2023-03-13T07:48:40.828Z,8.90
2023-03-13T07:51:42.071Z,9.00
2023-03-13T07:54:28.690Z,9.00
2023-03-13T07:57:14.039Z,9.00
2023-03-13T07:59:59.345Z,9.10
2023-03-13T08:02:44.689Z,9.10
2023-03-13T08:05:29.817Z,9.20
2023-03-13T08:08:15.244Z,9.20
2023-03-13T08:11:06.786Z,9.20
2023-03-13T08:13:56.023Z,9.30
2023-03-13T08:16:41.310Z,9.40
2023-03-13T08:19:26.759Z,9.40
2023-03-13T08:22:12.162Z,9.50
2023-03-13T08:24:57.760Z,9.50
2023-03-13T08:27:43.340Z,9.50
2023-03-13T08:30:28.620Z,9.60
2023-03-13T08:33:13.969Z,9.60
2023-03-13T08:35:59.247Z,9.70
2023-03-13T08:38:46.586Z,9.70
2023-03-13T08:41:36.141Z,9.80
2023-03-13T08:44:21.524Z,9.80
2023-03-13T08:47:08.052Z,9.80
2023-03-13T08:49:54.988Z,9.90
2023-03-13T08:52:40.901Z,9.90
2023-03-13T08:55:26.672Z,9.90
2023-03-13T08:58:11.724Z,9.90
2023-03-13T09:01:03.256Z,10.00
2023-03-13T09:03:48.813Z,9.90
2023-03-13T09:06:37.438Z,10.10
2023-03-13T09:09:24.578Z,10.00
2023-03-13T09:12:24.476Z,10.10
2023-03-13T09:15:15.080Z,10.10
2023-03-13T09:18:00.553Z,10.10
2023-03-13T09:20:47.547Z,10.20
2023-03-13T09:23:34.036Z,10.20
2023-03-13T09:26:22.761Z,10.30
2023-03-13T09:29:09.523Z,10.30
2023-03-13T09:31:54.919Z,10.30
2023-03-13T09:34:40.363Z,10.20
2023-03-13T09:37:26.196Z,10.30
2023-03-13T09:40:16.745Z,10.40
2023-03-13T09:43:02.229Z,10.40
2023-03-13T09:45:51.127Z,10.50
2023-03-13T09:48:59.867Z,10.50
2023-03-13T09:51:48.958Z,10.70
2023-03-13T09:54:40.960Z,10.60
2023-03-13T09:57:33.908Z,10.60
2023-03-13T10:00:27.299Z,10.60
2023-03-13T10:03:22.599Z,10.80
2023-03-13T10:06:18.193Z,10.70
2023-03-13T10:09:05.815Z,10.70
2023-03-13T10:12:15.074Z,10.80
2023-03-13T10:15:39.361Z,10.90
2023-03-13T10:18:26.310Z,10.80
2023-03-13T10:21:23.586Z,10.80
2023-03-13T10:24:30.699Z,10.80
2023-03-13T10:27:16.314Z,10.80
2023-03-13T10:30:01.475Z,10.90
2023-03-13T10:32:46.751Z,10.90
2023-03-13T10:35:37.419Z,11.00
2023-03-13T10:38:25.531Z,10.90
2023-03-13T10:41:23.475Z,11.00
2023-03-13T10:44:30.078Z,11.00
2023-03-13T10:47:15.942Z,11.10
2023-03-13T10:50:04.162Z,11.10
2023-03-13T10:52:50.788Z,11.00
2023-03-13T10:55:36.019Z,11.10
2023-03-13T10:58:34.677Z,11.20
2023-03-13T11:01:42.552Z,11.30
2023-03-13T11:04:37.742Z,11.20
2023-03-13T11:07:33.540Z,11.30
2023-03-13T11:10:21.127Z,11.40
2023-03-13T11:13:36.528Z,11.40
2023-03-13T11:16:27.875Z,11.50
2023-03-13T11:20:06.415Z,11.50
2023-03-13T11:23:17.672Z,11.60
2023-03-13T11:26:24.125Z,11.60
2023-03-13T11:29:42.634Z,11.60
2023-03-13T11:32:52.487Z,11.80
2023-03-13T11:35:49.177Z,11.80
2023-03-13T11:38:44.337Z,11.90
2023-03-13T11:42:07.803Z,12.00
2023-03-13T11:45:06.743Z,12.00
2023-03-13T11:48:06.014Z,12.10
2023-03-13T11:51:14.141Z,12.20
2023-03-13T11:54:30.746Z,12.30
2023-03-13T11:57:20.340Z,12.40
2023-03-13T12:00:26.987Z,12.40
2023-03-13T12:03:17.487Z,12.40
2023-03-13T12:06:06.690Z,12.50
2023-03-13T12:09:20.074Z,12.60
2023-03-13T12:12:19.073Z,12.60
2023-03-13T12:15:18.991Z,12.70
2023-03-13T12:18:24.627Z,12.80
2023-03-13T12:21:15.745Z,12.80
2023-03-13T12:24:13.361Z,12.80
2023-03-13T12:27:17.714Z,12.80
2023-03-13T12:30:20.689Z,12.80
2023-03-13T12:33:27.593Z,12.90
2023-03-13T12:36:29.301Z,13.00
2023-03-13T12:39:30.130Z,13.00
2023-03-13T12:42:52.918Z,13.10
2023-03-13T12:46:06.431Z,13.10
2023-03-13T12:49:10.195Z,13.10
2023-03-13T12:52:14.389Z,13.20
2023-03-13T12:55:20.980Z,13.20
2023-03-13T12:58:28.357Z,13.30
2023-03-13T13:01:26.278Z,13.30
2023-03-13T13:04:32.675Z,13.40
2023-03-13T13:07:33.798Z,13.40
2023-03-13T13:10:25.101Z,13.40
2023-03-13T13:13:16.198Z,13.40
2023-03-13T13:16:11.384Z,13.40
2023-03-13T13:19:24.701Z,13.40
2023-03-13T13:22:37.772Z,13.40
2023-03-13T13:25:28.457Z,13.60
2023-03-13T13:28:19.145Z,13.60
2023-03-13T13:31:42.901Z,13.60
2023-03-13T13:34:28.438Z,13.70
2023-03-13T13:37:17.619Z,13.90
2023-03-13T13:40:23.086Z,14.20
2023-03-13T13:43:23.129Z,14.50
2023-03-13T13:46:10.507Z,14.60
2023-03-13T13:49:04.907Z,14.70
2023-03-13T13:52:02.465Z,14.60
2023-03-13T13:54:47.723Z,14.60
2023-03-13T13:57:37.029Z,14.70
2023-03-13T14:00:27.073Z,14.70
2023-03-13T14:03:42.070Z,14.90
2023-03-13T14:06:33.492Z,15.00
2023-03-13T14:09:40.606Z,15.10
2023-03-13T14:12:36.604Z,15.00
2023-03-13T14:15:30.355Z,15.10
2023-03-13T14:18:30.948Z,15.10
2023-03-13T14:21:22.639Z,15.10
2023-03-13T14:24:15.876Z,15.00
2023-03-13T14:27:17.281Z,14.90
2023-03-13T14:30:05.888Z,14.70
2023-03-13T14:32:51.586Z,14.70
2023-03-13T14:35:37.203Z,14.70
2023-03-13T14:38:25.099Z,14.70
2023-03-13T14:41:42.818Z,14.70
2023-03-13T14:44:30.844Z,14.70
2023-03-13T14:47:27.049Z,14.70
2023-03-13T14:50:14.880Z,14.80
2023-03-13T14:53:10.729Z,14.90
2023-03-13T14:56:14.173Z,15.00
2023-03-13T14:59:24.509Z,15.10
2023-03-13T15:02:22.430Z,15.20
2023-03-13T15:05:11.030Z,15.30
2023-03-13T15:07:57.330Z,15.60
2023-03-13T15:10:43.415Z,16.00
2023-03-13T15:13:37.036Z,16.20
2023-03-13T15:16:24.022Z,16.40
2023-03-13T15:19:09.141Z,16.50
2023-03-13T15:21:54.763Z,16.70
2023-03-13T15:24:39.904Z,16.80
2023-03-13T15:27:26.424Z,16.80
2023-03-13T15:30:20.577Z,16.80
2023-03-13T15:33:05.746Z,17.00
2023-03-13T15:35:51.060Z,17.20
2023-03-13T15:38:36.706Z,17.20
2023-03-13T15:41:22.814Z,17.20
2023-03-13T15:44:08.491Z,17.30
2023-03-13T15:46:53.715Z,17.30
2023-03-13T15:49:39.364Z,17.20
2023-03-13T15:52:24.652Z,17.10
2023-03-13T15:55:12.305Z,16.90
2023-03-13T15:57:58.242Z,16.70
2023-03-13T16:00:47.253Z,16.50
2023-03-13T16:03:33.190Z,16.60
2023-03-13T16:06:21.333Z,16.80
2023-03-13T16:09:07.598Z,16.90
2023-03-13T16:11:52.750Z,17.10
2023-03-13T16:14:38.902Z,17.00
2023-03-13T16:17:25.740Z,16.90
2023-03-13T16:20:22.036Z,17.00
2023-03-13T16:23:07.360Z,16.90
2023-03-13T16:25:52.801Z,17.00
2023-03-13T16:28:38.129Z,17.10
2023-03-13T16:31:31.958Z,17.30
2023-03-13T16:34:17.588Z,17.30
2023-03-13T16:37:09.908Z,17.20
2023-03-13T16:39:55.247Z,17.10
2023-03-13T16:42:40.244Z,16.90
2023-03-13T16:45:26.720Z,16.60
2023-03-13T16:48:18.740Z,16.50
2023-03-13T16:51:07.267Z,16.20
2023-03-13T16:53:54.915Z,16.00
2023-03-13T16:56:43.155Z,15.90
2023-03-13T16:59:30.325Z,15.90
2023-03-13T17:02:21.244Z,15.90
2023-03-13T17:05:07.174Z,15.80
2023-03-13T17:07:53.061Z,15.70
2023-03-13T17:10:38.397Z,15.70
2023-03-13T17:13:24.094Z,15.60
2023-03-13T17:16:18.979Z,15.50
2023-03-13T17:19:06.453Z,15.40
2023-03-13T17:21:51.813Z,15.30
2023-03-13T17:24:37.090Z,15.30
2023-03-13T17:27:22.819Z,15.30
2023-03-13T17:30:31.219Z,15.30
2023-03-13T17:33:16.359Z,15.20
2023-03-13T17:36:01.750Z,15.20
2023-03-13T17:38:49.411Z,15.10
2023-03-13T17:41:35.269Z,15.00
2023-03-13T17:44:20.562Z,14.90
2023-03-13T17:47:17.496Z,14.90
2023-03-13T17:50:03.212Z,14.90
2023-03-13T17:52:48.540Z,14.80
2023-03-13T17:55:34.748Z,14.70
2023-03-13T17:58:19.878Z,14.60
2023-03-13T18:01:05.477Z,14.60
2023-03-13T18:03:51.342Z,14.50
2023-03-13T18:06:42.922Z,14.40
2023-03-13T18:09:27.949Z,14.30
2023-03-13T18:12:14.813Z,14.30
2023-03-13T18:14:59.937Z,14.20
2023-03-13T18:17:45.586Z,14.20
2023-03-13T18:20:32.095Z,14.10
2023-03-13T18:23:17.183Z,14.00
2023-03-13T18:26:21.945Z,14.00
2023-03-13T18:29:14.566Z,14.10
2023-03-13T18:32:00.546Z,14.20
2023-03-13T18:34:45.831Z,14.00
2023-03-13T18:37:33.024Z,13.70
2023-03-13T18:40:24.801Z,13.60
2023-03-13T18:43:10.350Z,13.60
2023-03-13T18:45:55.815Z,13.50
2023-03-13T18:48:41.170Z,13.50
2023-03-13T18:51:27.956Z,13.60
2023-03-13T18:54:13.052Z,13.60
2023-03-13T18:56:58.475Z,13.70
2023-03-13T18:59:44.810Z,13.70
2023-03-13T19:02:30.242Z,13.60
2023-03-13T19:05:16.858Z,13.60
2023-03-13T19:08:02.134Z,13.50
2023-03-13T19:10:47.736Z,13.60
2023-03-13T19:13:38.184Z,13.50
2023-03-13T19:16:27.586Z,13.50
2023-03-13T19:19:23.227Z,13.10
2023-03-13T19:22:13.998Z,13.10
2023-03-13T19:24:59.178Z,12.80
2023-03-13T19:27:45.202Z,12.70
2023-03-13T19:30:30.581Z,12.80
2023-03-13T19:33:16.025Z,12.90
2023-03-13T19:36:01.325Z,13.00
2023-03-13T19:38:46.905Z,13.10
2023-03-13T19:41:31.931Z,13.20
2023-03-13T19:44:18.625Z,13.20
2023-03-13T19:47:04.848Z,13.10
2023-03-13T19:49:52.125Z,13.10
2023-03-13T19:52:37.455Z,13.10
2023-03-13T19:55:22.727Z,13.10
2023-03-13T19:58:08.304Z,13.10
2023-03-13T20:00:53.528Z,13.20
2023-03-13T20:03:39.240Z,13.20
2023-03-13T20:06:26.963Z,13.20
2023-03-13T20:09:15.256Z,13.20
2023-03-13T20:12:00.270Z,13.20
2023-03-13T20:14:45.758Z,13.10
2023-03-13T20:17:31.085Z,13.10
2023-03-13T20:20:16.727Z,13.00
2023-03-13T20:23:01.915Z,13.00
2023-03-13T20:25:47.325Z,13.00
2023-03-13T20:28:32.798Z,13.00
2023-03-13T20:31:21.466Z,13.00
2023-03-13T20:34:06.869Z,12.80
2023-03-13T20:36:56.872Z,12.80
2023-03-13T20:39:42.243Z,12.80
2023-03-13T20:42:28.092Z,12.70
2023-03-13T20:45:13.565Z,12.70
2023-03-13T20:47:59.243Z,12.80
2023-03-13T20:50:45.118Z,12.80
2023-03-13T20:53:30.500Z,12.70
2023-03-13T20:56:15.868Z,12.70
2023-03-13T20:59:01.319Z,12.80
2023-03-13T21:01:46.780Z,12.70
2023-03-13T21:04:32.328Z,12.70
2023-03-13T21:07:17.638Z,12.60
2023-03-13T21:10:03.942Z,12.60
2023-03-13T21:12:49.269Z,12.60
2023-03-13T21:15:34.824Z,12.50
2023-03-13T21:18:20.279Z,12.50
2023-03-13T21:21:16.901Z,12.40
2023-03-13T21:24:02.360Z,12.50
2023-03-13T21:26:47.833Z,12.50
2023-03-13T21:29:33.500Z,12.60
2023-03-13T21:32:19.487Z,12.60
2023-03-13T21:35:05.743Z,12.60
2023-03-13T21:37:51.396Z,12.60
2023-03-13T21:40:36.675Z,12.60
2023-03-13T21:43:23.659Z,12.60
2023-03-13T21:46:17.121Z,12.70
2023-03-13T21:49:02.650Z,12.70
2023-03-13T21:51:47.768Z,12.60
2023-03-13T21:54:33.362Z,12.60
2023-03-13T21:57:18.721Z,12.70
2023-03-13T22:00:07.913Z,12.70
2023-03-13T22:02:53.395Z,12.70
2023-03-13T22:05:43.719Z,12.70
2023-03-13T22:08:28.948Z,12.60
2023-03-13T22:11:14.457Z,12.60
2023-03-13T22:14:00.019Z,12.50
2023-03-13T22:16:45.369Z,12.60
2023-03-13T22:19:30.705Z,12.60
2023-03-13T22:22:17.167Z,12.50
2023-03-13T22:25:02.661Z,12.40
2023-03-13T22:27:48.076Z,12.30
2023-03-13T22:30:33.466Z,12.30
2023-03-13T22:33:18.989Z,12.20
2023-03-13T22:36:04.804Z,12.10
2023-03-13T22:38:50.119Z,11.90
2023-03-13T22:41:35.535Z,12.00
2023-03-13T22:44:21.683Z,12.00
2023-03-13T22:47:06.842Z,11.90
2023-03-13T22:49:53.431Z,11.70
2023-03-13T22:52:39.146Z,11.80
2023-03-13T22:55:24.766Z,11.60
2023-03-13T22:58:09.825Z,11.40
2023-03-13T23:00:55.723Z,11.60
2023-03-13T23:03:41.072Z,11.60
2023-03-13T23:06:27.123Z,11.50
2023-03-13T23:09:12.571Z,11.40
2023-03-13T23:11:58.192Z,11.30
2023-03-13T23:14:43.477Z,11.30
2023-03-13T23:17:33.759Z,11.20
2023-03-13T23:20:18.966Z,11.10
2023-03-13T23:23:04.318Z,11.20
2023-03-13T23:25:50.000Z,11.20
2023-03-13T23:28:36.913Z,11.20
2023-03-13T23:31:23.685Z,11.20
2023-03-13T23:34:08.870Z,11.20
2023-03-13T23:36:54.463Z,11.10
2023-03-13T23:39:39.708Z,11.10
2023-03-13T23:42:25.173Z,11.10
2023-03-13T23:45:10.562Z,11.00
2023-03-13T23:47:56.232Z,11.00
2023-03-13T23:50:41.576Z,10.90
2023-03-13T23:53:26.847Z,10.80
2023-03-13T23:56:12.625Z,10.80
2023-03-13T23:58:57.907Z,10.80
